createdAt,value
2022-08-17T00:00:07.831Z,68.92
2022-08-17T00:01:07.967Z,68.82
2022-08-17T00:02:13.211Z,68.82
2022-08-17T00:03:08.079Z,68.82
2022-08-17T00:04:10.886Z,68.92
2022-08-17T00:05:08.246Z,68.92
2022-08-17T00:06:08.345Z,68.92
2022-08-17T00:07:08.446Z,69.02
2022-08-17T00:08:08.513Z,69.12
2022-08-17T00:09:08.589Z,69.12
2022-08-17T00:10:08.698Z,69.12
2022-08-17T00:11:08.758Z,69.12
2022-08-17T00:12:41.176Z,69.12
2022-08-17T00:13:08.943Z,69.12
2022-08-17T00:14:09.012Z,69.23
2022-08-17T00:15:10.656Z,69.32
2022-08-17T00:16:09.192Z,69.23
2022-08-17T00:17:09.294Z,69.12
2022-08-17T00:18:57.427Z,69.23
2022-08-17T00:19:12.620Z,69.32
2022-08-17T00:20:09.539Z,69.53
2022-08-17T00:21:10.339Z,69.73
2022-08-17T00:22:33.077Z,69.73
2022-08-17T00:23:09.781Z,69.82
2022-08-17T00:24:09.848Z,69.62
2022-08-17T00:25:09.928Z,69.62
2022-08-17T00:26:10.018Z,69.53
2022-08-17T00:27:10.117Z,69.53
2022-08-17T00:28:10.184Z,69.53
2022-08-17T00:29:10.261Z,69.53
2022-08-17T00:30:10.366Z,69.53
2022-08-17T00:31:10.437Z,69.53
2022-08-17T00:33:12.121Z,69.62
2022-08-17T00:33:21.206Z,69.49
2022-08-17T00:34:10.707Z,69.39
2022-08-17T00:35:10.767Z,69.39
2022-08-17T00:36:10.871Z,69.29
2022-08-17T00:37:10.962Z,69.09
2022-08-17T00:38:11.045Z,69.12
2022-08-17T00:39:11.122Z,69.23
2022-08-17T00:40:11.278Z,69.53
2022-08-17T00:41:11.284Z,69.56
2022-08-17T00:42:11.403Z,70.50
2022-08-17T00:43:11.439Z,71.33
2022-08-17T00:44:11.545Z,72.27
2022-08-17T00:45:11.618Z,72.77
2022-08-17T00:46:11.724Z,72.77
2022-08-17T00:47:11.809Z,72.97
2022-08-17T00:48:29.371Z,73.07
2022-08-17T00:49:11.969Z,73.07
2022-08-17T00:50:12.054Z,73.41
2022-08-17T00:51:12.130Z,73.50
2022-08-17T00:52:12.245Z,73.81
2022-08-17T00:53:12.309Z,74.24
2022-08-17T00:54:12.415Z,74.65
2022-08-17T00:55:12.492Z,74.74
2022-08-17T00:56:12.597Z,74.85
2022-08-17T00:57:12.700Z,74.74
2022-08-17T00:58:12.767Z,74.85
2022-08-17T00:59:12.842Z,74.85
2022-08-17T01:00:12.947Z,74.85
2022-08-17T01:01:13.108Z,74.95
2022-08-17T01:02:15.087Z,75.05
2022-08-17T01:03:13.201Z,74.85
2022-08-17T01:04:13.290Z,74.65
2022-08-17T01:05:13.367Z,74.24
2022-08-17T01:06:13.460Z,73.91
2022-08-17T01:07:13.544Z,73.50
2022-08-17T01:08:13.658Z,73.17
2022-08-17T01:09:13.732Z,72.97
2022-08-17T01:11:00.038Z,72.77
2022-08-17T01:11:13.923Z,72.43
2022-08-17T01:12:14.009Z,72.33
2022-08-17T01:13:14.206Z,72.24
2022-08-17T01:14:14.176Z,72.27
2022-08-17T01:15:14.254Z,72.37
2022-08-17T01:16:14.358Z,72.47
2022-08-17T01:17:14.438Z,72.47
2022-08-17T01:18:14.537Z,72.24
2022-08-17T01:19:14.604Z,72.13
2022-08-17T01:20:14.708Z,72.13
2022-08-17T01:21:14.769Z,72.13
2022-08-17T01:22:14.861Z,71.93
2022-08-17T01:23:18.565Z,71.73
2022-08-17T01:24:15.055Z,71.63
2022-08-17T01:25:15.120Z,71.39
2022-08-17T01:26:15.226Z,71.33
2022-08-17T01:27:15.301Z,71.30
2022-08-17T01:28:33.600Z,71.20
2022-08-17T01:29:15.494Z,71.09
2022-08-17T01:30:57.921Z,71.09
2022-08-17T01:31:15.666Z,71.13
2022-08-17T01:32:15.743Z,71.23
2022-08-17T01:33:15.953Z,71.23
2022-08-17T01:34:15.905Z,71.03
2022-08-17T01:35:15.977Z,71.13
2022-08-17T01:36:16.081Z,71.33
2022-08-17T01:37:16.165Z,71.53
2022-08-17T01:38:16.253Z,71.73
2022-08-17T01:39:16.309Z,71.97
2022-08-17T01:40:16.378Z,72.90
2022-08-17T01:41:16.458Z,73.41
2022-08-17T01:42:16.522Z,73.50
2022-08-17T01:43:16.701Z,73.61
2022-08-17T01:44:16.692Z,73.64
2022-08-17T01:45:16.770Z,73.74
2022-08-17T01:46:16.876Z,73.94
2022-08-17T01:47:16.953Z,74.15
2022-08-17T01:48:17.069Z,74.48
2022-08-17T01:49:17.111Z,74.78
2022-08-17T01:50:17.214Z,74.88
2022-08-17T01:51:17.292Z,75.09
2022-08-17T01:52:17.400Z,75.09
2022-08-17T01:53:17.517Z,75.18
2022-08-17T01:54:17.582Z,75.09
2022-08-17T01:55:17.661Z,75.09
2022-08-17T01:56:17.769Z,75.09
2022-08-17T01:57:17.848Z,74.88
2022-08-17T01:58:17.952Z,74.78
2022-08-17T01:59:17.992Z,74.55
2022-08-17T02:00:18.078Z,74.55
2022-08-17T02:01:18.224Z,74.58
2022-08-17T02:02:30.435Z,74.68
2022-08-17T02:03:18.382Z,74.88
2022-08-17T02:04:18.445Z,74.88
2022-08-17T02:05:18.521Z,75.22
2022-08-17T02:06:27.219Z,75.42
2022-08-17T02:07:18.698Z,75.42
2022-08-17T02:08:20.068Z,75.42
2022-08-17T02:09:18.877Z,75.29
2022-08-17T02:10:20.251Z,75.09
2022-08-17T02:11:19.023Z,74.88
2022-08-17T02:12:39.479Z,74.68
2022-08-17T02:13:19.233Z,74.68
2022-08-17T02:14:19.301Z,74.35
2022-08-17T02:15:19.376Z,74.24
2022-08-17T02:16:19.470Z,74.04
2022-08-17T02:17:19.549Z,73.94
2022-08-17T02:18:19.671Z,73.74
2022-08-17T02:19:19.709Z,73.74
2022-08-17T02:20:42.664Z,73.64
2022-08-17T02:21:19.896Z,73.64
2022-08-17T02:22:19.963Z,73.64
2022-08-17T02:23:20.060Z,73.74
2022-08-17T02:25:00.522Z,74.08
2022-08-17T02:25:20.217Z,74.04
2022-08-17T02:26:24.011Z,73.84
2022-08-17T02:27:20.382Z,73.54
2022-08-17T02:28:20.491Z,73.34
2022-08-17T02:29:20.527Z,73.14
2022-08-17T02:30:59.195Z,73.00
2022-08-17T02:31:20.728Z,72.90
2022-08-17T02:32:28.421Z,72.80
2022-08-17T02:33:20.974Z,72.71
2022-08-17T02:34:20.971Z,72.60
2022-08-17T02:35:21.048Z,72.50
2022-08-17T02:36:25.409Z,72.40
2022-08-17T02:37:21.242Z,72.30
2022-08-17T02:38:21.306Z,72.20
2022-08-17T02:39:21.389Z,72.20
2022-08-17T02:40:35.966Z,72.10
2022-08-17T02:41:21.583Z,72.10
2022-08-17T02:42:21.615Z,71.97
2022-08-17T02:43:21.751Z,71.86
2022-08-17T02:44:38.794Z,71.86
2022-08-17T02:45:21.904Z,71.77
2022-08-17T02:46:21.978Z,71.77
2022-08-17T02:47:22.082Z,71.66
2022-08-17T02:48:31.247Z,71.66
2022-08-17T02:49:22.243Z,71.56
2022-08-17T02:50:22.305Z,71.56
2022-08-17T02:51:22.410Z,71.56
2022-08-17T02:52:43.038Z,71.56
2022-08-17T02:53:22.608Z,71.56
2022-08-17T02:54:41.775Z,71.56
2022-08-17T02:55:22.750Z,71.56
2022-08-17T02:56:22.821Z,71.47
2022-08-17T02:57:22.914Z,71.56
2022-08-17T02:58:34.567Z,71.56
2022-08-17T02:59:23.070Z,71.47
2022-08-17T03:00:23.145Z,71.47
2022-08-17T03:01:23.310Z,71.36
2022-08-17T03:02:23.294Z,71.47
2022-08-17T03:03:23.415Z,71.36
2022-08-17T03:04:23.467Z,71.26
2022-08-17T03:05:23.568Z,71.26
2022-08-17T03:06:23.644Z,71.13
2022-08-17T03:07:23.747Z,71.03
2022-08-17T03:08:23.839Z,71.03
2022-08-17T03:09:23.914Z,71.03
2022-08-17T03:10:23.986Z,71.03
2022-08-17T03:11:24.095Z,71.03
2022-08-17T03:12:24.170Z,71.03
2022-08-17T03:13:24.372Z,71.03
2022-08-17T03:14:26.211Z,71.03
2022-08-17T03:15:24.443Z,71.03
2022-08-17T03:16:24.515Z,71.03
2022-08-17T03:17:24.622Z,71.03
2022-08-17T03:18:26.060Z,71.03
2022-08-17T03:19:24.806Z,71.03
2022-08-17T03:20:24.884Z,70.93
2022-08-17T03:21:24.991Z,70.93
2022-08-17T03:22:37.059Z,70.83
2022-08-17T03:23:25.408Z,70.93
2022-08-17T03:24:28.612Z,70.83
2022-08-17T03:25:25.304Z,70.73
2022-08-17T03:26:25.379Z,70.73
2022-08-17T03:27:25.470Z,70.43
2022-08-17T03:28:25.535Z,70.43
2022-08-17T03:29:25.607Z,70.39
2022-08-17T03:30:25.669Z,70.29
2022-08-17T03:31:25.782Z,70.39
2022-08-17T03:32:25.852Z,70.39
2022-08-17T03:33:25.976Z,70.29
2022-08-17T03:34:26.045Z,70.39
2022-08-17T03:35:26.149Z,70.29
2022-08-17T03:36:26.227Z,70.19
2022-08-17T03:37:26.333Z,70.29
2022-08-17T03:38:26.429Z,70.29
2022-08-17T03:39:26.607Z,70.19
2022-08-17T03:40:34.574Z,70.09
2022-08-17T03:41:26.676Z,70.19
2022-08-17T03:42:31.910Z,70.09
2022-08-17T03:43:26.860Z,70.09
2022-08-17T03:44:26.913Z,69.99
2022-08-17T03:45:27.003Z,69.89
2022-08-17T03:46:35.023Z,69.79
2022-08-17T03:47:27.177Z,69.76
2022-08-17T03:48:27.242Z,69.66
2022-08-17T03:49:27.344Z,69.56
2022-08-17T03:50:27.384Z,69.66
2022-08-17T03:51:27.495Z,69.56
2022-08-17T03:52:27.581Z,69.79
2022-08-17T03:53:27.678Z,69.89
2022-08-17T03:54:27.721Z,69.89
2022-08-17T03:55:35.763Z,69.99
2022-08-17T03:56:27.906Z,70.09
2022-08-17T03:57:27.979Z,70.39
2022-08-17T03:58:28.065Z,71.13
2022-08-17T03:59:28.166Z,71.23
2022-08-17T04:00:28.207Z,71.13
2022-08-17T04:01:28.353Z,71.13
2022-08-17T04:02:28.387Z,70.93
2022-08-17T04:03:28.472Z,70.93
2022-08-17T04:04:28.517Z,70.89
2022-08-17T04:05:28.605Z,70.69
2022-08-17T04:06:28.694Z,70.59
2022-08-17T04:07:28.794Z,70.79
2022-08-17T04:08:28.883Z,70.59
2022-08-17T04:09:28.955Z,70.50
2022-08-17T04:10:29.026Z,70.50
2022-08-17T04:11:29.119Z,70.59
2022-08-17T04:12:29.194Z,70.50
2022-08-17T04:13:29.319Z,70.50
2022-08-17T04:14:29.358Z,70.39
2022-08-17T04:15:29.470Z,70.29
2022-08-17T04:16:29.545Z,70.29
2022-08-17T04:17:29.657Z,70.16
2022-08-17T04:18:29.755Z,70.16
2022-08-17T04:19:29.809Z,70.06
2022-08-17T04:20:29.886Z,69.96
2022-08-17T04:21:29.962Z,69.76
2022-08-17T04:22:34.262Z,69.86
2022-08-17T04:23:30.142Z,69.86
2022-08-17T04:24:30.207Z,69.86
2022-08-17T04:25:30.296Z,69.76
2022-08-17T04:26:53.484Z,69.86
2022-08-17T04:27:30.474Z,69.86
2022-08-17T04:28:30.559Z,69.76
2022-08-17T04:29:55.098Z,69.76
2022-08-17T04:30:30.717Z,69.66
2022-08-17T04:31:30.785Z,69.53
2022-08-17T04:33:03.419Z,69.53
2022-08-17T04:33:30.980Z,69.66
2022-08-17T04:34:31.018Z,69.56
2022-08-17T04:35:31.109Z,69.66
2022-08-17T04:36:31.189Z,69.66
2022-08-17T04:37:31.293Z,69.56
2022-08-17T04:38:31.385Z,69.46
2022-08-17T04:39:33.749Z,69.53
2022-08-17T04:40:31.547Z,69.42
2022-08-17T04:41:31.640Z,69.32
2022-08-17T04:42:31.728Z,69.42
2022-08-17T04:43:31.817Z,69.42
2022-08-17T04:44:37.545Z,69.53
2022-08-17T04:45:32.638Z,69.42
2022-08-17T04:46:32.032Z,69.53
2022-08-17T04:47:32.135Z,69.23
2022-08-17T04:48:36.245Z,69.53
2022-08-17T04:49:32.309Z,69.76
2022-08-17T04:50:32.387Z,69.66
2022-08-17T04:51:32.498Z,69.73
2022-08-17T04:52:43.280Z,69.62
2022-08-17T04:53:32.710Z,69.96
2022-08-17T04:54:32.737Z,70.36
2022-08-17T04:55:32.842Z,70.46
2022-08-17T04:56:32.917Z,70.56
2022-08-17T04:57:39.378Z,70.66
2022-08-17T04:58:33.114Z,70.46
2022-08-17T04:59:33.186Z,70.46
2022-08-17T05:00:33.246Z,70.16
2022-08-17T05:01:33.465Z,70.03
2022-08-17T05:02:33.400Z,70.03
2022-08-17T05:03:33.643Z,69.82
2022-08-17T05:04:35.336Z,69.73
2022-08-17T05:05:33.718Z,69.73
2022-08-17T05:06:33.729Z,69.62
2022-08-17T05:07:33.835Z,69.82
2022-08-17T05:08:33.931Z,69.53
2022-08-17T05:09:34.006Z,69.93
2022-08-17T05:10:34.090Z,69.62
2022-08-17T05:11:34.189Z,69.93
2022-08-17T05:12:34.224Z,70.46
2022-08-17T05:13:34.345Z,70.46
2022-08-17T05:14:34.377Z,70.56
2022-08-17T05:15:36.002Z,70.46
2022-08-17T05:16:34.543Z,70.46
2022-08-17T05:17:34.611Z,70.12
2022-08-17T05:18:34.703Z,69.93
2022-08-17T05:19:34.764Z,70.03
2022-08-17T05:20:34.834Z,69.49
2022-08-17T05:21:34.905Z,69.42
2022-08-17T05:22:34.979Z,69.42
2022-08-17T05:23:42.246Z,69.39
2022-08-17T05:24:42.618Z,69.29
2022-08-17T05:25:37.394Z,69.19
2022-08-17T05:26:36.457Z,69.29
2022-08-17T05:27:36.129Z,69.39
2022-08-17T05:28:35.496Z,69.49
2022-08-17T05:29:36.039Z,69.69
2022-08-17T05:30:35.600Z,69.89
2022-08-17T05:31:35.706Z,70.03
2022-08-17T05:32:38.525Z,70.09
2022-08-17T05:33:35.892Z,69.99
2022-08-17T05:34:35.930Z,69.89
2022-08-17T05:35:36.014Z,69.89
2022-08-17T05:36:43.063Z,69.79
2022-08-17T05:37:36.174Z,69.46
2022-08-17T05:38:36.265Z,69.06
2022-08-17T05:39:36.375Z,68.55
2022-08-17T05:40:36.423Z,68.32
2022-08-17T05:41:36.506Z,68.13
2022-08-17T05:42:36.581Z,67.72
2022-08-17T05:43:36.674Z,67.63
2022-08-17T05:44:36.714Z,67.49
2022-08-17T05:45:55.400Z,67.29
2022-08-17T05:46:36.882Z,67.29
2022-08-17T05:47:36.950Z,67.19
2022-08-17T05:48:40.115Z,67.09
2022-08-17T05:49:37.103Z,66.99
2022-08-17T05:50:37.176Z,66.99
2022-08-17T05:51:37.287Z,66.99
2022-08-17T05:52:37.361Z,67.09
2022-08-17T05:53:37.478Z,67.09
2022-08-17T05:54:37.490Z,67.29
2022-08-17T05:55:37.565Z,67.19
2022-08-17T05:56:37.642Z,67.19
2022-08-17T05:57:39.581Z,67.09
2022-08-17T05:58:37.814Z,67.19
2022-08-17T05:59:37.861Z,67.19
2022-08-17T06:00:37.995Z,67.40
2022-08-17T06:01:38.101Z,67.40
2022-08-17T06:02:38.118Z,67.49
2022-08-17T06:03:38.201Z,67.36
2022-08-17T06:04:38.238Z,67.26
2022-08-17T06:05:38.323Z,67.16
2022-08-17T06:06:38.399Z,67.06
2022-08-17T06:07:38.490Z,67.06
2022-08-17T06:08:38.783Z,67.13
2022-08-17T06:09:38.647Z,67.43
2022-08-17T06:10:38.720Z,67.33
2022-08-17T06:11:38.859Z,67.03
2022-08-17T06:12:38.892Z,66.73
2022-08-17T06:13:38.994Z,66.23
2022-08-17T06:14:39.032Z,66.03
2022-08-17T06:15:39.110Z,65.83
2022-08-17T06:16:39.162Z,65.50
2022-08-17T06:17:39.259Z,65.30
2022-08-17T06:18:39.352Z,65.07
2022-08-17T06:19:39.431Z,64.97
2022-08-17T06:20:39.507Z,64.77
2022-08-17T06:21:39.595Z,64.47
2022-08-17T06:22:39.664Z,64.37
2022-08-17T06:23:39.782Z,64.04
2022-08-17T06:24:39.857Z,63.84
2022-08-17T06:25:39.956Z,63.74
2022-08-17T06:26:43.299Z,63.74
2022-08-17T06:27:40.125Z,63.64
2022-08-17T06:28:40.266Z,63.31
2022-08-17T06:29:40.306Z,63.11
2022-08-17T06:30:59.107Z,62.91
2022-08-17T06:31:40.482Z,62.81
2022-08-17T06:32:40.548Z,62.59
2022-08-17T06:33:40.670Z,62.38
2022-08-17T06:34:40.709Z,62.29
2022-08-17T06:35:40.809Z,62.08
2022-08-17T06:36:40.880Z,61.96
2022-08-17T06:37:40.966Z,61.66
2022-08-17T06:38:41.056Z,61.76
2022-08-17T06:39:41.225Z,61.66
2022-08-17T06:40:41.192Z,61.55
2022-08-17T06:41:41.279Z,61.55
2022-08-17T06:42:54.687Z,61.46
2022-08-17T06:43:44.047Z,61.46
2022-08-17T06:44:43.186Z,61.46
2022-08-17T06:45:41.603Z,61.46
2022-08-17T06:46:41.689Z,61.36
2022-08-17T06:47:41.771Z,61.16
2022-08-17T06:48:41.883Z,61.23
2022-08-17T06:49:41.951Z,61.13
2022-08-17T06:50:42.019Z,60.93
2022-08-17T06:51:42.117Z,61.03
2022-08-17T06:52:55.709Z,60.80
2022-08-17T06:53:42.325Z,60.60
2022-08-17T06:54:42.370Z,60.21
2022-08-17T06:55:42.455Z,60.17
2022-08-17T06:56:52.726Z,59.78
2022-08-17T06:57:42.633Z,59.35
2022-08-17T06:58:42.720Z,58.83
2022-08-17T06:59:55.702Z,58.40
2022-08-17T07:00:42.928Z,57.65
2022-08-17T07:01:42.928Z,56.73
2022-08-17T07:02:51.591Z,55.49
2022-08-17T07:03:43.133Z,54.64
2022-08-17T07:04:43.206Z,54.35
2022-08-17T07:05:43.255Z,54.37
2022-08-17T07:06:43.349Z,54.37
2022-08-17T07:07:43.424Z,54.69
2022-08-17T07:08:43.508Z,54.99
2022-08-17T07:09:43.572Z,55.32
2022-08-17T07:10:43.675Z,55.41
2022-08-17T07:11:43.750Z,55.61
2022-08-17T07:12:43.849Z,55.71
2022-08-17T07:13:43.938Z,55.94
2022-08-17T07:14:43.998Z,56.26
2022-08-17T07:15:44.064Z,56.56
2022-08-17T07:16:44.165Z,56.98
2022-08-17T07:17:46.934Z,57.28
2022-08-17T07:18:44.354Z,57.38
2022-08-17T07:19:44.402Z,57.38
2022-08-17T07:20:44.511Z,57.58
2022-08-17T07:21:44.578Z,57.87
2022-08-17T07:22:51.935Z,58.20
2022-08-17T07:23:44.752Z,58.30
2022-08-17T07:24:44.844Z,58.40
2022-08-17T07:25:44.923Z,58.50
2022-08-17T07:26:45.002Z,58.60
2022-08-17T07:27:45.074Z,58.73
2022-08-17T07:28:45.206Z,58.83
2022-08-17T07:29:45.256Z,58.83
2022-08-17T07:30:47.426Z,58.83
2022-08-17T07:31:45.395Z,58.92
2022-08-17T07:32:45.510Z,59.03
2022-08-17T07:33:45.611Z,59.03
2022-08-17T07:34:45.678Z,59.25
2022-08-17T07:35:45.755Z,59.65
2022-08-17T07:36:45.862Z,59.75
2022-08-17T07:37:45.997Z,59.85
2022-08-17T07:38:46.070Z,60.08
2022-08-17T07:40:14.881Z,60.08
2022-08-17T07:40:46.240Z,60.17
2022-08-17T07:41:58.010Z,60.38
2022-08-17T07:42:46.696Z,60.57
2022-08-17T07:43:46.417Z,60.90
2022-08-17T07:44:46.481Z,61.30
2022-08-17T07:45:46.555Z,61.50
2022-08-17T07:46:46.655Z,61.69
2022-08-17T07:47:46.755Z,61.90
2022-08-17T07:48:46.832Z,62.10
2022-08-17T07:49:46.871Z,62.89
2022-08-17T07:50:49.628Z,63.29
2022-08-17T07:51:47.032Z,63.39
2022-08-17T07:52:50.619Z,63.29
2022-08-17T07:53:47.209Z,63.59
2022-08-17T07:54:47.276Z,63.79
2022-08-17T07:55:47.349Z,63.69
2022-08-17T07:56:47.443Z,63.22
2022-08-17T07:57:47.542Z,63.52
2022-08-17T07:58:47.576Z,63.52
2022-08-17T07:59:47.664Z,63.32
2022-08-17T08:00:47.742Z,63.72
2022-08-17T08:01:47.861Z,63.82
2022-08-17T08:02:47.954Z,64.01
2022-08-17T08:03:52.433Z,64.61
2022-08-17T08:05:03.318Z,64.84
2022-08-17T08:05:49.891Z,64.64
2022-08-17T08:06:48.167Z,65.54
2022-08-17T08:07:48.277Z,64.45
2022-08-17T08:08:48.367Z,64.94
2022-08-17T08:09:48.433Z,64.64
2022-08-17T08:10:48.511Z,65.05
2022-08-17T08:11:48.617Z,65.14
2022-08-17T08:12:48.703Z,64.42
2022-08-17T08:13:48.819Z,64.12
2022-08-17T08:14:48.844Z,64.12
2022-08-17T08:15:53.839Z,64.31
2022-08-17T08:16:49.106Z,63.72
2022-08-17T08:17:49.260Z,63.42
2022-08-17T08:18:54.258Z,63.52
2022-08-17T08:19:49.271Z,63.52
2022-08-17T08:20:53.321Z,63.45
2022-08-17T08:21:49.404Z,63.85
2022-08-17T08:22:49.697Z,63.45
2022-08-17T08:23:49.596Z,63.25
2022-08-17T08:24:49.642Z,63.45
2022-08-17T08:25:53.306Z,63.45
2022-08-17T08:26:49.793Z,63.65
2022-08-17T08:27:50.090Z,63.45
2022-08-17T08:28:49.948Z,63.55
2022-08-17T08:29:50.036Z,63.65
2022-08-17T08:30:50.148Z,63.65
2022-08-17T08:31:50.213Z,63.75
2022-08-17T08:32:50.582Z,63.75
2022-08-17T08:33:50.379Z,63.85
2022-08-17T08:35:01.470Z,63.65
2022-08-17T08:35:50.515Z,63.85
2022-08-17T08:36:56.822Z,63.95
2022-08-17T08:37:50.736Z,64.15
2022-08-17T08:38:50.877Z,64.04
2022-08-17T08:39:50.947Z,63.98
2022-08-17T08:40:50.891Z,64.04
2022-08-17T08:41:50.960Z,64.15
2022-08-17T08:42:51.036Z,64.15
2022-08-17T08:43:53.234Z,64.15
2022-08-17T08:45:00.998Z,64.04
2022-08-17T08:45:51.280Z,64.45
2022-08-17T08:46:51.319Z,64.48
2022-08-17T08:47:51.650Z,64.67
2022-08-17T08:48:56.652Z,65.08
2022-08-17T08:50:06.956Z,65.57
2022-08-17T08:50:51.648Z,66.07
2022-08-17T08:51:51.793Z,67.07
2022-08-17T08:52:51.793Z,67.86
2022-08-17T08:53:51.897Z,69.36
2022-08-17T08:54:51.978Z,69.36
2022-08-17T08:55:52.046Z,70.75
2022-08-17T08:57:21.540Z,70.56
2022-08-17T08:57:52.417Z,68.56
2022-08-17T08:58:52.313Z,69.79
2022-08-17T08:59:58.194Z,70.79
2022-08-17T09:00:52.481Z,71.39
2022-08-17T09:01:52.580Z,70.92
2022-08-17T09:02:52.634Z,71.62
2022-08-17T09:03:53.730Z,70.62
2022-08-17T09:05:13.380Z,70.83
2022-08-17T09:05:52.855Z,71.36
2022-08-17T09:06:52.907Z,71.36
2022-08-17T09:07:57.255Z,72.25
2022-08-17T09:08:53.102Z,71.56
2022-08-17T09:09:56.182Z,71.45
2022-08-17T09:10:53.245Z,71.06
2022-08-17T09:12:01.229Z,71.75
2022-08-17T09:12:53.386Z,71.95
2022-08-17T09:13:54.448Z,72.35
2022-08-17T09:14:53.541Z,73.05
2022-08-17T09:15:53.651Z,73.45
2022-08-17T09:16:53.725Z,72.99
2022-08-17T09:18:14.559Z,73.19
2022-08-17T09:19:03.121Z,73.19
2022-08-17T09:19:53.959Z,73.58
2022-08-17T09:20:54.007Z,73.39
2022-08-17T09:21:54.093Z,73.99
2022-08-17T09:22:54.153Z,73.69
2022-08-17T09:23:54.263Z,73.69
2022-08-17T09:24:54.296Z,73.99
2022-08-17T09:25:54.378Z,72.99
2022-08-17T09:26:54.451Z,72.99
2022-08-17T09:27:54.539Z,72.78
2022-08-17T09:28:54.634Z,72.89
2022-08-17T09:29:54.698Z,72.69
2022-08-17T09:30:54.770Z,73.09
2022-08-17T09:31:54.884Z,72.78
2022-08-17T09:32:54.958Z,72.78
2022-08-17T09:33:55.132Z,72.59
2022-08-17T09:34:55.094Z,71.69
2022-08-17T09:35:55.184Z,71.95
2022-08-17T09:36:55.258Z,71.45
2022-08-17T09:37:55.342Z,71.15
2022-08-17T09:38:55.425Z,71.36
2022-08-17T09:39:55.557Z,71.12
2022-08-17T09:40:55.552Z,70.03
2022-08-17T09:41:55.659Z,70.49
2022-08-17T09:42:55.736Z,69.79
2022-08-17T09:43:55.839Z,68.96
2022-08-17T09:44:55.873Z,68.30
2022-08-17T09:45:55.972Z,68.40
2022-08-17T09:46:56.041Z,66.44
2022-08-17T09:47:56.140Z,65.81
2022-08-17T09:48:56.231Z,65.28
2022-08-17T09:49:56.311Z,65.28
2022-08-17T09:51:04.456Z,63.76
2022-08-17T09:51:56.492Z,63.83
2022-08-17T09:52:56.559Z,63.96
2022-08-17T09:54:09.486Z,63.86
2022-08-17T09:54:56.740Z,63.37
2022-08-17T09:55:56.836Z,63.17
2022-08-17T09:57:25.699Z,63.46
2022-08-17T09:57:57.010Z,63.17
2022-08-17T09:58:57.103Z,63.27
2022-08-17T09:59:57.173Z,62.67
2022-08-17T10:00:57.850Z,62.67
2022-08-17T10:01:57.339Z,62.07
2022-08-17T10:02:57.418Z,61.78
2022-08-17T10:03:57.556Z,61.55
2022-08-17T10:04:57.586Z,61.15
2022-08-17T10:05:57.684Z,61.25
2022-08-17T10:06:57.759Z,60.96
2022-08-17T10:07:57.857Z,61.22
2022-08-17T10:08:57.934Z,60.72
2022-08-17T10:09:57.995Z,60.63
2022-08-17T10:10:58.045Z,60.10
2022-08-17T10:11:58.138Z,59.80
2022-08-17T10:12:58.207Z,59.78
2022-08-17T10:13:58.779Z,59.88
2022-08-17T10:14:58.363Z,59.48
2022-08-17T10:15:58.466Z,59.67
2022-08-17T10:16:58.523Z,59.05
2022-08-17T10:17:58.622Z,58.92
2022-08-17T10:18:58.705Z,59.03
2022-08-17T10:19:58.771Z,58.60
2022-08-17T10:20:58.890Z,58.28
2022-08-17T10:22:01.011Z,57.78
2022-08-17T10:22:59.022Z,57.46
2022-08-17T10:23:59.192Z,57.06
2022-08-17T10:25:21.316Z,56.63
2022-08-17T10:25:59.280Z,56.12
2022-08-17T10:26:59.356Z,55.30
2022-08-17T10:27:59.460Z,54.88
2022-08-17T10:28:59.547Z,53.77
2022-08-17T10:29:59.612Z,52.92
2022-08-17T10:31:23.427Z,52.31
2022-08-17T10:31:59.787Z,52.01
2022-08-17T10:32:59.869Z,51.72
2022-08-17T10:34:00.083Z,51.92
2022-08-17T10:35:00.067Z,51.20
2022-08-17T10:36:00.147Z,51.07
2022-08-17T10:37:00.220Z,50.49
2022-08-17T10:38:00.302Z,50.90
2022-08-17T10:39:00.390Z,51.03
2022-08-17T10:40:00.538Z,50.93
2022-08-17T10:41:00.565Z,50.63
2022-08-17T10:42:00.652Z,50.83
2022-08-17T10:43:00.719Z,51.35
2022-08-17T10:44:38.729Z,52.26
2022-08-17T10:45:00.907Z,52.48
2022-08-17T10:46:09.427Z,52.61
2022-08-17T10:47:01.096Z,51.32
2022-08-17T10:48:05.661Z,52.14
2022-08-17T10:49:01.281Z,52.95
2022-08-17T10:50:01.338Z,53.47
2022-08-17T10:51:01.410Z,53.57
2022-08-17T10:52:01.510Z,53.70
2022-08-17T10:53:01.581Z,53.40
2022-08-17T10:54:01.733Z,53.00
2022-08-17T10:55:01.763Z,52.61
2022-08-17T10:56:01.857Z,52.91
2022-08-17T10:57:01.931Z,52.61
2022-08-17T10:58:02.028Z,53.23
2022-08-17T10:59:02.130Z,53.13
2022-08-17T11:00:02.207Z,53.25
2022-08-17T11:01:02.427Z,53.85
2022-08-17T11:02:02.374Z,54.14
2022-08-17T11:03:02.445Z,54.02
2022-08-17T11:04:02.651Z,53.63
2022-08-17T11:05:02.611Z,53.50
2022-08-17T11:06:02.678Z,53.13
2022-08-17T11:07:02.748Z,53.20
2022-08-17T11:08:02.846Z,52.61
2022-08-17T11:09:02.980Z,52.69
2022-08-17T11:10:02.993Z,52.71
2022-08-17T11:11:03.086Z,52.69
2022-08-17T11:12:03.153Z,52.48
2022-08-17T11:13:03.251Z,52.69
2022-08-17T11:14:03.330Z,53.08
2022-08-17T11:15:03.396Z,52.58
2022-08-17T11:16:07.770Z,52.58
2022-08-17T11:17:03.616Z,52.78
2022-08-17T11:18:03.636Z,52.88
2022-08-17T11:19:03.758Z,52.98
2022-08-17T11:20:03.784Z,53.38
2022-08-17T11:21:03.905Z,53.57
2022-08-17T11:22:03.956Z,53.40
2022-08-17T11:23:04.031Z,53.50
2022-08-17T11:24:04.125Z,53.70
2022-08-17T11:25:04.206Z,53.57
2022-08-17T11:26:04.289Z,53.38
2022-08-17T11:27:04.356Z,52.95
2022-08-17T11:28:04.415Z,52.46
2022-08-17T11:29:04.530Z,52.56
2022-08-17T11:30:04.576Z,52.34
2022-08-17T11:31:04.665Z,51.82
2022-08-17T11:32:04.741Z,51.32
2022-08-17T11:33:04.827Z,51.52
2022-08-17T11:34:04.987Z,51.72
2022-08-17T11:35:04.989Z,51.03
2022-08-17T11:36:05.067Z,51.03
2022-08-17T11:37:05.167Z,51.32
2022-08-17T11:38:05.241Z,51.72
2022-08-17T11:39:05.354Z,51.32
2022-08-17T11:40:05.499Z,51.59
2022-08-17T11:41:05.518Z,51.50
2022-08-17T11:42:05.585Z,51.59
2022-08-17T11:43:05.672Z,51.30
2022-08-17T11:44:05.806Z,51.10
2022-08-17T11:45:05.833Z,51.18
2022-08-17T11:46:05.905Z,50.49
2022-08-17T11:47:05.992Z,50.49
2022-08-17T11:49:06.189Z,50.38
2022-08-17T11:50:06.223Z,49.99
2022-08-17T11:51:06.322Z,50.19
2022-08-17T11:52:06.372Z,50.38
2022-08-17T11:53:06.459Z,49.90
2022-08-17T11:54:31.620Z,50.09
2022-08-17T11:55:31.923Z,49.79
2022-08-17T11:56:06.682Z,50.61
2022-08-17T11:57:06.781Z,50.71
2022-08-17T11:58:06.836Z,50.81
2022-08-17T11:59:06.917Z,50.93
2022-08-17T12:00:06.982Z,51.13
2022-08-17T12:01:07.088Z,51.52
2022-08-17T12:02:07.143Z,51.94
2022-08-17T12:03:07.318Z,51.94
2022-08-17T12:04:07.380Z,51.94
2022-08-17T12:05:09.697Z,52.53
2022-08-17T12:06:07.506Z,52.73
2022-08-17T12:07:07.598Z,52.63
2022-08-17T12:08:07.668Z,52.63
2022-08-17T12:09:07.774Z,52.31
2022-08-17T12:10:07.913Z,51.92
2022-08-17T12:11:07.921Z,51.59
2022-08-17T12:12:12.781Z,51.62
2022-08-17T12:13:08.098Z,51.59
2022-08-17T12:14:08.201Z,51.89
2022-08-17T12:15:11.053Z,51.30
2022-08-17T12:16:08.295Z,51.32
2022-08-17T12:17:08.391Z,51.92
2022-08-17T12:18:08.466Z,52.21
2022-08-17T12:19:08.573Z,51.72
2022-08-17T12:20:08.639Z,51.30
2022-08-17T12:21:08.738Z,51.40
2022-08-17T12:22:08.808Z,51.20
2022-08-17T12:23:08.908Z,50.90
2022-08-17T12:24:09.139Z,50.61
2022-08-17T12:25:09.071Z,50.90
2022-08-17T12:26:09.150Z,51.10
2022-08-17T12:27:09.256Z,51.23
2022-08-17T12:28:09.918Z,51.82
2022-08-17T12:29:18.484Z,52.44
2022-08-17T12:30:09.495Z,52.44
2022-08-17T12:31:09.596Z,52.83
2022-08-17T12:32:09.651Z,53.12
2022-08-17T12:33:09.748Z,52.93
2022-08-17T12:34:09.836Z,52.61
2022-08-17T12:35:09.906Z,52.51
2022-08-17T12:36:09.976Z,52.51
2022-08-17T12:37:10.074Z,52.61
2022-08-17T12:38:32.104Z,52.51
2022-08-17T12:39:14.597Z,52.61
2022-08-17T12:40:10.343Z,52.80
2022-08-17T12:41:10.389Z,52.91
2022-08-17T12:42:10.459Z,52.41
2022-08-17T12:43:10.569Z,52.61
2022-08-17T12:44:10.756Z,52.58
2022-08-17T12:45:10.737Z,52.39
2022-08-17T12:46:15.252Z,52.80
2022-08-17T12:47:10.901Z,52.91
2022-08-17T12:48:10.975Z,52.70
2022-08-17T12:49:11.083Z,52.51
2022-08-17T12:50:28.711Z,52.28
2022-08-17T12:51:11.221Z,52.80
2022-08-17T12:52:11.296Z,53.10
2022-08-17T12:53:11.394Z,53.17
2022-08-17T12:54:11.487Z,52.68